Time;durP1;ratioP1;P1;durP2;ratioP2;P2;SDS_P1;SDS_P2;PMS_P1;PMS_P2;Temp;Humidity;BMP_temperature;BMP_pressure;BME280_temperature;BME280_humidity;BME280_pressure;Samples;Min_cycle;Max_cycle;Signal;HPM_P1;HPM_P2
2024/02/27 00:00:18;;;;;;;36.45;6.18;;;;;;;;;;5013184;28;20026;-42
2024/02/27 00:02:45;;;;;;;40.92;5.90;;;;;;;;;;5027866;28;20029;-34
2024/02/27 00:05:12;;;;;;;34.63;5.82;;;;;;;;;;5021337;28;20033;-40
2024/02/27 00:07:39;;;;;;;43.42;6.28;;;;;;;;;;5030714;28;20025;-31
2024/02/27 00:10:06;;;;;;;48.72;7.15;;;;;;;;;;5036394;28;20029;-32
2024/02/27 00:12:34;;;;;;;35.47;7.18;;;;;;;;;;5045532;28;20036;-35
2024/02/27 00:15:01;;;;;;;51.15;7.20;;;;;;;;;;5022540;28;20034;-31
2024/02/27 00:17:28;;;;;;;39.75;7.25;;;;;;;;;;5042309;28;20021;-33
2024/02/27 00:19:55;;;;;;;41.33;6.70;;;;;;;;;;5043221;28;20037;-33
2024/02/27 00:22:22;;;;;;;36.50;6.25;;;;;;;;;;5031021;28;20502;-41
2024/02/27 00:24:49;;;;;;;36.75;6.13;;;;;;;;;;5032158;28;20021;-32
2024/02/27 00:27:16;;;;;;;34.10;6.30;;;;;;;;;;5039683;28;20025;-39
2024/02/27 00:29:43;;;;;;;33.65;6.40;;;;;;;;;;5033950;28;20017;-35
2024/02/27 00:32:10;;;;;;;42.33;6.82;;;;;;;;;;5030661;28;20142;-32
2024/02/27 00:34:37;;;;;;;37.72;6.68;;;;;;;;;;5016602;28;20084;-31
2024/02/27 00:37:05;;;;;;;38.95;5.97;;;;;;;;;;5013471;28;20022;-35
2024/02/27 00:39:32;;;;;;;45.42;7.15;;;;;;;;;;5044100;28;20051;-30
2024/02/27 00:42:00;;;;;;;59.80;7.78;;;;;;;;;;5050783;28;20017;-33
2024/02/27 00:44:27;;;;;;;48.20;7.47;;;;;;;;;;5049145;28;20029;-29
2024/02/27 00:46:54;;;;;;;54.13;7.72;;;;;;;;;;5051676;28;20036;-37
2024/02/27 00:49:21;;;;;;;50.25;7.93;;;;;;;;;;5050956;28;20510;-33
2024/02/27 00:51:48;;;;;;;51.22;7.65;;;;;;;;;;5043201;28;20076;-31
2024/02/27 00:54:15;;;;;;;61.85;8.45;;;;;;;;;;5051405;28;20036;-31
2024/02/27 00:56:42;;;;;;;56.55;8.52;;;;;;;;;;5051308;28;20052;-31
2024/02/27 00:59:09;;;;;;;57.47;8.75;;;;;;;;;;5051115;28;20033;-36
2024/02/27 01:01:37;;;;;;;57.85;9.55;;;;;;;;;;5051253;28;20109;-30
2024/02/27 01:04:04;;;;;;;67.20;10.20;;;;;;;;;;5049927;28;20078;-31
2024/02/27 01:06:31;;;;;;;62.53;9.70;;;;;;;;;;5039420;28;20029;-35
2024/02/27 01:08:58;;;;;;;67.63;9.70;;;;;;;;;;5048732;28;20040;-32
2024/02/27 01:11:25;;;;;;;52.85;8.75;;;;;;;;;;5034836;28;20037;-30
2024/02/27 01:13:52;;;;;;;43.33;8.55;;;;;;;;;;5040980;28;20078;-33
2024/02/27 01:16:20;;;;;;;46.03;8.95;;;;;;;;;;5034078;28;20026;-35
2024/02/27 01:18:47;;;;;;;41.92;9.13;;;;;;;;;;5041403;28;20132;-32
2024/02/27 01:21:14;;;;;;;39.80;9.02;;;;;;;;;;5039645;28;20044;-31
2024/02/27 01:23:41;;;;;;;48.17;9.60;;;;;;;;;;5040540;28;20029;-35
2024/02/27 01:26:08;;;;;;;34.53;7.38;;;;;;;;;;5042280;28;20033;-34
2024/02/27 01:28:35;;;;;;;34.13;7.20;;;;;;;;;;5050790;28;20060;-34
2024/02/27 01:31:02;;;;;;;34.42;8.02;;;;;;;;;;5050536;28;20045;-32
2024/02/27 01:33:30;;;;;;;39.03;7.78;;;;;;;;;;5040430;28;20491;-33
2024/02/27 01:35:57;;;;;;;39.15;7.57;;;;;;;;;;5045871;28;20028;-33
2024/02/27 01:38:24;;;;;;;34.85;7.53;;;;;;;;;;5050024;28;20479;-33
2024/02/27 01:40:51;;;;;;;37.45;8.65;;;;;;;;;;5046570;28;20049;-30
2024/02/27 01:43:24;;;;;;;36.13;8.13;;;;;;;;;;5047291;28;20395;-33
2024/02/27 01:45:58;;;;;;;47.35;10.25;;;;;;;;;;5036407;28;20044;-32
2024/02/27 01:48:25;;;;;;;50.08;11.48;;;;;;;;;;5043738;28;20041;-32
2024/02/27 01:50:52;;;;;;;44.22;12.15;;;;;;;;;;5013619;28;20503;-36
2024/02/27 01:53:19;;;;;;;41.78;10.80;;;;;;;;;;5038032;28;20029;-33
2024/02/27 01:55:47;;;;;;;47.47;10.73;;;;;;;;;;5027028;28;20045;-30
2024/02/27 01:58:14;;;;;;;34.22;9.85;;;;;;;;;;5046373;28;20086;-32
2024/02/27 02:00:42;;;;;;;41.10;11.57;;;;;;;;;;5050608;28;20104;-30
2024/02/27 02:03:09;;;;;;;42.85;11.18;;;;;;;;;;5047721;28;20142;-34
2024/02/27 02:05:36;;;;;;;32.08;10.00;;;;;;;;;;5034158;28;20144;-29
2024/02/27 02:08:03;;;;;;;34.78;9.52;;;;;;;;;;5033955;28;20033;-32
2024/02/27 02:10:30;;;;;;;29.30;8.80;;;;;;;;;;5034898;28;20464;-34
2024/02/27 02:12:57;;;;;;;34.25;8.95;;;;;;;;;;5034443;28;20041;-30
2024/02/27 02:15:24;;;;;;;34.63;7.95;;;;;;;;;;5034582;28;20095;-30
2024/02/27 02:17:55;;;;;;;31.60;7.93;;;;;;;;;;5033300;28;20108;-32
2024/02/27 02:20:22;;;;;;;32.83;8.18;;;;;;;;;;5034450;28;20060;-30
2024/02/27 02:22:49;;;;;;;28.15;7.40;;;;;;;;;;5034541;28;20029;-32
2024/02/27 02:25:17;;;;;;;28.85;7.50;;;;;;;;;;5034517;28;20547;-30
2024/02/27 02:27:44;;;;;;;28.60;7.65;;;;;;;;;;5034201;28;20383;-31
2024/02/27 02:30:11;;;;;;;28.38;6.97;;;;;;;;;;5034379;28;20514;-30
2024/02/27 02:32:51;;;;;;;24.20;7.45;;;;;;;;;;5034228;28;20045;-33
2024/02/27 02:35:20;;;;;;;24.00;7.70;;;;;;;;;;5034379;28;20040;-31
2024/02/27 02:37:48;;;;;;;21.95;6.82;;;;;;;;;;5034191;28;20029;-30
2024/02/27 02:40:16;;;;;;;19.58;6.78;;;;;;;;;;5041404;28;20407;-33
2024/02/27 02:42:43;;;;;;;18.52;7.18;;;;;;;;;;5040905;28;20464;-32
2024/02/27 02:45:10;;;;;;;23.95;7.65;;;;;;;;;;5054043;28;20048;-30
2024/02/27 02:47:37;;;;;;;21.23;7.20;;;;;;;;;;5053844;28;20025;-30
2024/02/27 02:50:05;;;;;;;19.63;7.50;;;;;;;;;;5053904;28;20087;-31
2024/02/27 02:52:32;;;;;;;21.27;7.25;;;;;;;;;;5053801;28;20044;-32
2024/02/27 02:55:02;;;;;;;26.20;8.13;;;;;;;;;;5053852;28;20025;-32
2024/02/27 02:57:32;;;;;;;27.58;8.05;;;;;;;;;;5053579;28;20039;-30
2024/02/27 02:59:59;;;;;;;26.60;8.65;;;;;;;;;;5053647;28;20108;-31
2024/02/27 03:02:26;;;;;;;27.95;7.78;;;;;;;;;;5053714;28;20036;-30
2024/02/27 03:04:53;;;;;;;24.05;7.72;;;;;;;;;;5053766;28;20403;-30
2024/02/27 03:07:20;;;;;;;26.63;8.07;;;;;;;;;;5053633;28;20078;-30
2024/02/27 03:09:47;;;;;;;30.58;8.02;;;;;;;;;;5053476;28;20025;-30
2024/02/27 03:12:14;;;;;;;30.90;8.02;;;;;;;;;;5052970;28;20048;-31
2024/02/27 03:14:47;;;;;;;26.13;8.05;;;;;;;;;;5053019;28;20032;-30
2024/02/27 03:17:17;;;;;;;27.70;7.68;;;;;;;;;;5053580;28;20028;-33
2024/02/27 03:19:44;;;;;;;27.60;8.45;;;;;;;;;;5053452;28;20025;-33
2024/02/27 03:22:11;;;;;;;35.92;9.40;;;;;;;;;;5053430;28;20029;-31
2024/02/27 03:24:44;;;;;;;27.58;9.57;;;;;;;;;;5053376;28;20021;-33
2024/02/27 03:27:11;;;;;;;25.52;10.52;;;;;;;;;;5053352;28;20516;-29
2024/02/27 03:29:38;;;;;;;30.13;10.27;;;;;;;;;;5053247;28;20036;-34
2024/02/27 03:32:06;;;;;;;21.98;8.82;;;;;;;;;;5053209;28;20063;-30
2024/02/27 03:34:36;;;;;;;20.73;8.15;;;;;;;;;;5053259;28;20483;-33
2024/02/27 03:37:03;;;;;;;20.98;8.05;;;;;;;;;;5053131;28;20028;-30
2024/02/27 03:39:30;;;;;;;18.92;7.15;;;;;;;;;;5052933;28;20509;-32
2024/02/27 03:41:57;;;;;;;17.48;7.75;;;;;;;;;;5052865;28;20033;-30
2024/02/27 03:44:24;;;;;;;20.05;8.15;;;;;;;;;;5052982;28;20364;-30
2024/02/27 03:46:51;;;;;;;22.38;9.27;;;;;;;;;;5053082;28;20024;-32
2024/02/27 03:49:18;;;;;;;19.58;9.38;;;;;;;;;;5052737;28;20079;-33
2024/02/27 03:51:45;;;;;;;21.95;9.85;;;;;;;;;;5052852;28;20098;-30
2024/02/27 03:54:12;;;;;;;22.17;9.23;;;;;;;;;;5052874;28;20033;-29
2024/02/27 03:56:39;;;;;;;18.42;8.95;;;;;;;;;;5052813;28;20404;-32
2024/02/27 03:59:06;;;;;;;20.55;9.25;;;;;;;;;;5052435;28;20037;-32
2024/02/27 04:01:33;;;;;;;21.58;9.43;;;;;;;;;;5052631;28;20025;-35
2024/02/27 04:04:00;;;;;;;18.63;8.60;;;;;;;;;;5053232;28;20540;-35
2024/02/27 04:06:27;;;;;;;13.10;6.97;;;;;;;;;;5053061;28;20025;-37
2024/02/27 04:08:54;;;;;;;16.20;7.35;;;;;;;;;;5052709;28;20106;-34
2024/02/27 04:11:21;;;;;;;15.60;7.05;;;;;;;;;;5052950;28;20032;-31
2024/02/27 04:13:48;;;;;;;18.00;7.10;;;;;;;;;;5053096;28;20116;-37
2024/02/27 04:16:15;;;;;;;14.73;6.85;;;;;;;;;;5053024;28;20510;-34
2024/02/27 04:18:42;;;;;;;16.77;7.22;;;;;;;;;;5052858;28;20090;-32
2024/02/27 04:21:09;;;;;;;16.23;6.85;;;;;;;;;;5052688;28;20102;-37
2024/02/27 04:23:36;;;;;;;12.82;6.53;;;;;;;;;;5052320;28;20060;-37
2024/02/27 04:26:03;;;;;;;16.45;6.88;;;;;;;;;;5052727;28;20049;-32
2024/02/27 04:28:29;;;;;;;14.60;5.13;;;;;;;;;;5052780;28;20017;-36
2024/02/27 04:30:56;;;;;;;10.52;5.53;;;;;;;;;;5052631;28;20032;-32
2024/02/27 04:33:23;;;;;;;14.27;5.60;;;;;;;;;;5052473;28;20108;-29
2024/02/27 04:35:50;;;;;;;14.40;5.70;;;;;;;;;;5052222;28;20059;-29
2024/02/27 04:38:17;;;;;;;12.57;6.03;;;;;;;;;;5051937;28;20055;-31
2024/02/27 04:40:44;;;;;;;11.63;5.82;;;;;;;;;;5051832;28;20052;-31
2024/02/27 04:43:11;;;;;;;11.05;5.32;;;;;;;;;;5052006;28;20028;-29
2024/02/27 04:45:38;;;;;;;11.85;5.38;;;;;;;;;;5051925;28;20025;-29
2024/02/27 04:48:06;;;;;;;11.57;4.68;;;;;;;;;;5051810;28;20552;-32
2024/02/27 04:50:34;;;;;;;10.20;4.75;;;;;;;;;;5051734;28;20040;-32
2024/02/27 04:53:01;;;;;;;10.73;4.68;;;;;;;;;;5051789;28;20039;-30
2024/02/27 04:55:29;;;;;;;9.00;4.05;;;;;;;;;;5051741;28;20021;-29
2024/02/27 04:57:56;;;;;;;8.90;3.95;;;;;;;;;;5051829;28;20479;-30
2024/02/27 05:00:23;;;;;;;7.00;3.90;;;;;;;;;;5051734;28;20033;-32
2024/02/27 05:02:50;;;;;;;7.63;3.30;;;;;;;;;;5051554;28;20099;-28
2024/02/27 05:05:17;;;;;;;6.65;3.65;;;;;;;;;;5051670;28;20029;-32
2024/02/27 05:07:44;;;;;;;7.45;3.20;;;;;;;;;;5051468;28;20029;-29
2024/02/27 05:10:11;;;;;;;10.00;3.28;;;;;;;;;;5051486;28;20025;-29
2024/02/27 05:12:38;;;;;;;5.32;2.33;;;;;;;;;;5051569;28;20083;-30
2024/02/27 05:15:05;;;;;;;6.82;2.75;;;;;;;;;;5033530;28;20113;-29
2024/02/27 05:17:32;;;;;;;9.20;3.03;;;;;;;;;;5051445;28;20059;-31
2024/02/27 05:19:59;;;;;;;6.35;2.85;;;;;;;;;;5051322;28;20078;-29
2024/02/27 05:22:26;;;;;;;5.05;2.42;;;;;;;;;;5051495;28;20490;-29
2024/02/27 05:24:53;;;;;;;5.22;2.40;;;;;;;;;;5051418;28;20099;-30
2024/02/27 05:27:20;;;;;;;4.15;2.47;;;;;;;;;;5051347;28;20486;-30
2024/02/27 05:29:47;;;;;;;5.25;1.98;;;;;;;;;;5051424;28;20025;-29
2024/02/27 05:32:14;;;;;;;3.92;1.90;;;;;;;;;;5051158;28;20387;-30
2024/02/27 05:34:41;;;;;;;4.47;2.15;;;;;;;;;;5051278;28;20395;-30
2024/02/27 05:37:08;;;;;;;3.05;1.70;;;;;;;;;;5053815;28;20029;-32
2024/02/27 05:39:35;;;;;;;3.55;2.05;;;;;;;;;;5055632;28;20090;-37
2024/02/27 05:42:02;;;;;;;3.30;1.92;;;;;;;;;;5056227;28;20113;-37
2024/02/27 05:44:29;;;;;;;3.17;1.50;;;;;;;;;;5055793;28;20033;-35
2024/02/27 05:46:56;;;;;;;5.18;1.50;;;;;;;;;;5055953;28;20479;-36
2024/02/27 05:49:23;;;;;;;3.08;1.55;;;;;;;;;;5055860;28;20029;-37
2024/02/27 05:51:50;;;;;;;3.45;1.80;;;;;;;;;;5055669;28;20033;-36
2024/02/27 05:54:17;;;;;;;3.30;1.50;;;;;;;;;;5055778;28;20025;-36
2024/02/27 05:56:44;;;;;;;4.60;1.55;;;;;;;;;;5055217;28;20096;-33
2024/02/27 05:59:10;;;;;;;4.20;1.67;;;;;;;;;;5055442;28;20487;-34
2024/02/27 06:01:37;;;;;;;2.65;1.35;;;;;;;;;;5054205;28;20112;-35
2024/02/27 06:04:04;;;;;;;2.42;1.30;;;;;;;;;;5055279;28;20052;-38
2024/02/27 06:06:31;;;;;;;2.35;1.30;;;;;;;;;;5055463;28;20029;-38
2024/02/27 06:08:58;;;;;;;2.60;1.10;;;;;;;;;;5055661;28;20028;-33
2024/02/27 06:11:25;;;;;;;2.20;1.10;;;;;;;;;;5055576;28;20037;-33
2024/02/27 06:13:52;;;;;;;4.80;1.27;;;;;;;;;;5055427;28;20036;-31
2024/02/27 06:16:19;;;;;;;2.83;1.00;;;;;;;;;;5054928;28;20021;-31
2024/02/27 06:18:47;;;;;;;1.90;1.15;;;;;;;;;;5054661;28;20025;-30
2024/02/27 06:24:00;;;;;;;2.40;1.00;;;;;;;;;;5054821;28;20043;-32
2024/02/27 06:26:27;;;;;;;1.67;1.10;;;;;;;;;;5054624;28;20486;-31
2024/02/27 06:28:54;;;;;;;1.60;0.88;;;;;;;;;;5054383;28;20021;-28
2024/02/27 06:31:21;;;;;;;2.30;1.05;;;;;;;;;;5054411;28;20025;-30
2024/02/27 06:33:48;;;;;;;2.03;1.00;;;;;;;;;;5054426;28;20717;-32
2024/02/27 06:36:15;;;;;;;2.50;0.90;;;;;;;;;;5054402;28;20021;-28
2024/02/27 06:38:42;;;;;;;3.17;0.90;;;;;;;;;;5054318;28;20067;-33
2024/02/27 06:41:09;;;;;;;3.40;1.35;;;;;;;;;;5054202;28;20044;-32
2024/02/27 06:43:36;;;;;;;3.08;1.10;;;;;;;;;;5054209;28;20041;-28
2024/02/27 06:46:05;;;;;;;1.67;1.20;;;;;;;;;;5054215;28;20025;-29
2024/02/27 06:48:33;;;;;;;3.72;1.00;;;;;;;;;;5053690;28;20051;-30
2024/02/27 06:51:00;;;;;;;2.05;1.00;;;;;;;;;;5053881;28;20094;-34
2024/02/27 06:53:27;;;;;;;2.53;1.40;;;;;;;;;;5054049;28;20024;-29
2024/02/27 06:55:54;;;;;;;1.83;1.10;;;;;;;;;;5054001;28;20096;-29
2024/02/27 06:58:21;;;;;;;1.17;1.00;;;;;;;;;;5053873;28;20051;-29
2024/02/27 07:00:48;;;;;;;2.55;0.98;;;;;;;;;;5053912;28;20075;-31
2024/02/27 07:03:15;;;;;;;4.10;1.30;;;;;;;;;;5053974;28;20112;-31
2024/02/27 07:05:41;;;;;;;2.17;0.93;;;;;;;;;;5053941;28;20399;-30
2024/02/27 07:08:12;;;;;;;3.88;1.10;;;;;;;;;;5053733;28;20027;-30
2024/02/27 07:10:39;;;;;;;2.15;1.13;;;;;;;;;;5053686;28;20040;-29
2024/02/27 07:13:06;;;;;;;2.20;1.00;;;;;;;;;;5053662;28;20728;-29
2024/02/27 07:15:34;;;;;;;2.58;0.90;;;;;;;;;;5053662;28;20057;-28
2024/02/27 07:18:01;;;;;;;1.73;0.95;;;;;;;;;;5053605;28;20021;-31
2024/02/27 07:20:29;;;;;;;3.50;0.98;;;;;;;;;;5053623;28;20029;-29
2024/02/27 07:22:56;;;;;;;3.70;1.05;;;;;;;;;;5053364;28;20153;-31
2024/02/27 07:25:23;;;;;;;1.90;0.90;;;;;;;;;;5053415;28;20021;-30
2024/02/27 07:27:50;;;;;;;1.70;0.82;;;;;;;;;;5053381;28;20031;-31
2024/02/27 07:30:18;;;;;;;1.67;0.98;;;;;;;;;;5053317;28;20044;-31
2024/02/27 07:32:45;;;;;;;2.50;1.02;;;;;;;;;;5053303;28;20029;-31
2024/02/27 07:35:12;;;;;;;1.42;0.80;;;;;;;;;;5053298;28;20087;-35
2024/02/27 07:37:40;;;;;;;2.03;1.00;;;;;;;;;;5053101;28;20017;-36
2024/02/27 07:40:07;;;;;;;1.90;1.00;;;;;;;;;;5053052;28;20052;-35
2024/02/27 07:42:34;;;;;;;3.00;1.30;;;;;;;;;;5053229;28;20083;-32
2024/02/27 07:45:01;;;;;;;2.08;1.08;;;;;;;;;;5053040;28;20034;-33
2024/02/27 07:47:28;;;;;;;2.03;0.80;;;;;;;;;;5053251;28;20086;-34
2024/02/27 07:49:55;;;;;;;2.45;0.90;;;;;;;;;;5052957;28;20071;-33
2024/02/27 07:52:22;;;;;;;1.77;0.98;;;;;;;;;;5034975;28;20066;-37
2024/02/27 07:54:49;;;;;;;1.23;0.80;;;;;;;;;;5052900;28;20037;-37
2024/02/27 07:57:16;;;;;;;1.45;0.77;;;;;;;;;;5034675;28;20499;-32
2024/02/27 07:59:44;;;;;;;2.05;0.90;;;;;;;;;;5052227;28;20028;-31
2024/02/27 08:02:11;;;;;;;2.13;0.77;;;;;;;;;;5052859;28;20459;-34
2024/02/27 08:04:37;;;;;;;2.85;1.05;;;;;;;;;;5052386;28;20039;-33
2024/02/27 08:07:04;;;;;;;2.30;0.90;;;;;;;;;;5052571;28;20479;-33
2024/02/27 08:09:33;;;;;;;1.60;0.65;;;;;;;;;;5052578;28;20147;-35
2024/02/27 08:12:00;;;;;;;4.97;1.00;;;;;;;;;;5052516;28;20041;-33
2024/02/27 08:14:30;;;;;;;1.23;0.80;;;;;;;;;;5052507;28;20501;-37
2024/02/27 08:17:01;;;;;;;1.85;0.95;;;;;;;;;;5052152;28;20040;-40
2024/02/27 08:19:29;;;;;;;1.30;0.80;;;;;;;;;;5052233;28;20039;-32
2024/02/27 08:22:03;;;;;;;2.33;0.88;;;;;;;;;;5052206;28;20044;-35
2024/02/27 08:24:30;;;;;;;2.95;1.27;;;;;;;;;;5052174;28;20048;-37
2024/02/27 08:26:58;;;;;;;1.85;0.85;;;;;;;;;;5052252;28;20037;-35
2024/02/27 08:29:25;;;;;;;1.75;0.82;;;;;;;;;;5052236;28;20104;-36
2024/02/27 08:31:51;;;;;;;2.03;0.80;;;;;;;;;;5052179;28;20479;-32
2024/02/27 08:34:28;;;;;;;1.70;0.70;;;;;;;;;;5052162;28;20032;-31
2024/02/27 08:36:56;;;;;;;1.75;0.70;;;;;;;;;;5034218;28;20025;-35
2024/02/27 08:39:23;;;;;;;2.67;0.70;;;;;;;;;;5051794;28;20398;-34
2024/02/27 08:41:50;;;;;;;1.63;0.77;;;;;;;;;;5051871;28;20045;-35
2024/02/27 08:44:17;;;;;;;1.88;0.90;;;;;;;;;;5052015;28;20025;-37
2024/02/27 08:46:44;;;;;;;2.65;1.00;;;;;;;;;;5051897;28;20033;-33
2024/02/27 08:49:11;;;;;;;1.10;0.80;;;;;;;;;;5051859;28;20025;-34
2024/02/27 08:51:38;;;;;;;2.20;1.00;;;;;;;;;;5051787;28;20035;-36
2024/02/27 08:54:05;;;;;;;1.50;0.77;;;;;;;;;;5051702;28;20450;-35
2024/02/27 08:56:32;;;;;;;5.05;0.80;;;;;;;;;;5051839;28;20487;-33
2024/02/27 08:58:59;;;;;;;1.83;0.80;;;;;;;;;;5051714;28;20028;-33
2024/02/27 09:01:26;;;;;;;1.90;1.00;;;;;;;;;;5051738;28;20584;-31
2024/02/27 09:03:52;;;;;;;3.53;1.10;;;;;;;;;;5051530;28;20383;-36
2024/02/27 09:06:19;;;;;;;3.88;0.95;;;;;;;;;;5051529;28;20025;-34
2024/02/27 09:08:46;;;;;;;1.42;0.65;;;;;;;;;;5051591;28;20386;-35
2024/02/27 09:11:13;;;;;;;3.42;0.85;;;;;;;;;;5050441;28;20494;-36
2024/02/27 09:13:40;;;;;;;1.20;0.60;;;;;;;;;;5051352;28;20032;-33
2024/02/27 09:16:07;;;;;;;2.15;0.90;;;;;;;;;;5051551;28;20486;-34
2024/02/27 09:18:35;;;;;;;3.30;0.95;;;;;;;;;;5051340;28;20025;-35
2024/02/27 09:21:02;;;;;;;2.45;0.63;;;;;;;;;;5051555;28;20044;-36
2024/02/27 09:23:29;;;;;;;5.30;1.35;;;;;;;;;;5051430;28;20043;-35
2024/02/27 09:25:56;;;;;;;1.65;0.80;;;;;;;;;;5051348;28;20047;-35
2024/02/27 09:28:23;;;;;;;6.68;1.02;;;;;;;;;;5051384;28;20056;-32
2024/02/27 09:30:50;;;;;;;5.32;1.27;;;;;;;;;;5050707;28;20451;-30
2024/02/27 09:33:17;;;;;;;3.72;1.27;;;;;;;;;;5050973;28;20068;-35
2024/02/27 09:35:45;;;;;;;3.38;1.20;;;;;;;;;;5050689;28;20036;-30
2024/02/27 09:38:12;;;;;;;6.00;1.70;;;;;;;;;;5051007;28;20033;-30
2024/02/27 09:40:41;;;;;;;3.50;1.13;;;;;;;;;;5050740;28;20057;-30
2024/02/27 09:43:12;;;;;;;10.70;1.40;;;;;;;;;;5051083;28;20025;-30
2024/02/27 09:45:39;;;;;;;5.78;2.28;;;;;;;;;;5050689;28;20047;-29
2024/02/27 09:48:07;;;;;;;10.40;1.90;;;;;;;;;;5050334;28;20033;-33
2024/02/27 09:50:35;;;;;;;9.02;1.90;;;;;;;;;;5050204;28;20397;-31
2024/02/27 09:53:02;;;;;;;4.75;1.60;;;;;;;;;;5032515;28;20392;-34
2024/02/27 09:55:30;;;;;;;5.75;1.33;;;;;;;;;;5050308;28;20483;-31
2024/02/27 09:57:58;;;;;;;6.25;1.40;;;;;;;;;;5050477;28;20037;-29
2024/02/27 10:00:25;;;;;;;6.25;1.92;;;;;;;;;;5047710;28;20116;-34
2024/02/27 10:02:52;;;;;;;4.15;1.40;;;;;;;;;;5050491;28;20029;-36
2024/02/27 10:05:20;;;;;;;6.03;1.50;;;;;;;;;;5050631;28;20025;-29
2024/02/27 10:07:49;;;;;;;4.47;1.45;;;;;;;;;;5047625;28;20574;-32
2024/02/27 10:10:17;;;;;;;6.38;1.50;;;;;;;;;;5050105;28;20622;-38
2024/02/27 10:12:44;;;;;;;5.72;1.55;;;;;;;;;;5045526;28;20884;-36
2024/02/27 10:15:11;;;;;;;8.63;1.50;;;;;;;;;;5048365;28;20119;-37
2024/02/27 10:17:39;;;;;;;9.93;1.40;;;;;;;;;;5047144;28;20035;-30
2024/02/27 10:20:13;;;;;;;4.97;1.33;;;;;;;;;;5049862;28;20037;-32
2024/02/27 10:22:41;;;;;;;7.10;1.70;;;;;;;;;;5052004;28;20060;-33
2024/02/27 10:25:14;;;;;;;10.73;2.00;;;;;;;;;;5052827;28;20086;-32
2024/02/27 10:27:44;;;;;;;13.63;2.58;;;;;;;;;;5054180;28;20036;-31
2024/02/27 10:43:35;;;;;;;9.80;1.73;;;;;;;;;;5108314;27;20791;-36
2024/02/27 10:46:02;;;;;;;15.30;2.38;;;;;;;;;;5107025;28;20035;-37
2024/02/27 10:48:29;;;;;;;8.82;1.45;;;;;;;;;;5106569;28;20099;-37
2024/02/27 10:50:56;;;;;;;7.35;1.73;;;;;;;;;;5108635;28;20057;-39
2024/02/27 10:53:25;;;;;;;7.68;1.45;;;;;;;;;;5108836;28;20393;-37
2024/02/27 10:55:54;;;;;;;6.53;1.10;;;;;;;;;;5107692;28;20058;-37
2024/02/27 10:58:22;;;;;;;6.65;1.20;;;;;;;;;;5107817;28;20035;-46
2024/02/27 11:00:50;;;;;;;4.10;1.10;;;;;;;;;;5108504;28;20103;-39
2024/02/27 11:03:17;;;;;;;3.60;0.88;;;;;;;;;;5108548;28;20036;-39
2024/02/27 11:05:45;;;;;;;9.05;1.15;;;;;;;;;;5107432;28;20016;-39
2024/02/27 11:08:13;;;;;;;6.32;1.20;;;;;;;;;;5108522;28;20043;-37
2024/02/27 11:10:40;;;;;;;4.53;1.20;;;;;;;;;;5106831;28;20481;-36
2024/02/27 11:13:08;;;;;;;11.88;1.58;;;;;;;;;;5108442;28;20023;-36
2024/02/27 11:15:39;;;;;;;7.22;1.38;;;;;;;;;;5108785;28;20032;-37
2024/02/27 11:18:08;;;;;;;15.77;2.63;;;;;;;;;;5108665;28;20444;-37
2024/02/27 11:20:36;;;;;;;15.23;2.30;;;;;;;;;;5108653;28;20482;-36
2024/02/27 11:23:03;;;;;;;15.82;2.55;;;;;;;;;;5108457;28;20382;-36
2024/02/27 11:25:31;;;;;;;17.10;3.00;;;;;;;;;;5108432;28;20093;-36
2024/02/27 11:27:58;;;;;;;11.07;2.47;;;;;;;;;;5108552;28;20032;-36
2024/02/27 11:30:25;;;;;;;18.30;2.53;;;;;;;;;;5108306;28;20043;-36
2024/02/27 11:32:52;;;;;;;16.98;3.30;;;;;;;;;;5108230;28;20039;-36
2024/02/27 11:35:22;;;;;;;18.95;3.15;;;;;;;;;;5108438;28;20039;-37
2024/02/27 11:37:52;;;;;;;11.43;2.25;;;;;;;;;;5108192;28;20108;-36
2024/02/27 11:40:38;;;;;;;10.13;1.98;;;;;;;;;;5089942;28;20366;-36
2024/02/27 11:43:06;;;;;;;9.35;2.03;;;;;;;;;;5101849;28;20462;-36
2024/02/27 11:45:33;;;;;;;10.35;1.90;;;;;;;;;;5094391;28;20393;-37
2024/02/27 11:48:00;;;;;;;12.10;1.80;;;;;;;;;;5094535;28;20066;-39
2024/02/27 11:50:36;;;;;;;7.13;1.60;;;;;;;;;;5076558;28;20064;-39
2024/02/27 11:53:21;;;;;;;8.18;1.60;;;;;;;;;;5087462;28;20566;-39
2024/02/27 11:55:49;;;;;;;10.90;1.60;;;;;;;;;;5074140;28;20489;-38
2024/02/27 11:58:16;;;;;;;7.78;1.92;;;;;;;;;;5074100;28;20032;-39
2024/02/27 12:00:47;;;;;;;6.53;1.90;;;;;;;;;;5074065;28;20024;-39
2024/02/27 12:03:13;;;;;;;5.15;1.30;;;;;;;;;;5073825;28;20027;-36
2024/02/27 12:05:47;;;;;;;6.53;1.63;;;;;;;;;;5073800;28;20093;-36
2024/02/27 12:08:18;;;;;;;4.70;1.20;;;;;;;;;;5074043;28;20386;-36
2024/02/27 12:10:46;;;;;;;6.90;1.30;;;;;;;;;;5073762;28;20039;-36
2024/02/27 12:13:13;;;;;;;3.42;1.23;;;;;;;;;;5073633;28;20037;-36
2024/02/27 12:15:40;;;;;;;2.53;1.20;;;;;;;;;;5073709;28;20029;-36
2024/02/27 12:18:07;;;;;;;2.65;1.33;;;;;;;;;;5073776;28;20024;-36
2024/02/27 12:20:34;;;;;;;4.35;0.90;;;;;;;;;;5073642;28;20476;-36
2024/02/27 12:23:01;;;;;;;3.88;1.20;;;;;;;;;;5073593;28;20508;-37
2024/02/27 12:25:28;;;;;;;1.95;0.90;;;;;;;;;;5073593;28;20817;-36
2024/02/27 12:27:55;;;;;;;2.60;0.80;;;;;;;;;;5073492;28;20052;-37
2024/02/27 12:30:22;;;;;;;2.85;0.80;;;;;;;;;;5075752;28;20032;-36
2024/02/27 12:32:49;;;;;;;3.50;0.90;;;;;;;;;;5092358;28;20042;-36
2024/02/27 12:35:17;;;;;;;3.72;0.80;;;;;;;;;;5093588;28;20036;-36
2024/02/27 12:37:45;;;;;;;6.28;0.90;;;;;;;;;;5075354;28;20412;-36
2024/02/27 12:40:14;;;;;;;2.72;0.73;;;;;;;;;;5093246;28;20036;-36
2024/02/27 12:42:48;;;;;;;3.58;0.80;;;;;;;;;;5093163;28;20040;-36
2024/02/27 12:45:16;;;;;;;2.42;0.70;;;;;;;;;;5093515;28;20020;-37
2024/02/27 12:47:50;;;;;;;4.22;0.90;;;;;;;;;;5093451;28;20438;-36
2024/02/27 12:50:23;;;;;;;3.00;0.75;;;;;;;;;;5093258;28;20046;-36
2024/02/27 12:52:58;;;;;;;2.90;0.93;;;;;;;;;;5093073;28;20036;-36
2024/02/27 12:55:25;;;;;;;4.95;1.00;;;;;;;;;;5092303;28;20040;-37
2024/02/27 12:57:56;;;;;;;2.75;0.70;;;;;;;;;;5093223;28;20485;-37
2024/02/27 13:00:24;;;;;;;1.42;0.60;;;;;;;;;;5092836;28;20035;-37
2024/02/27 13:02:55;;;;;;;2.25;0.70;;;;;;;;;;5092960;28;20027;-37
2024/02/27 13:05:24;;;;;;;1.02;0.50;;;;;;;;;;5092790;28;20521;-37
2024/02/27 13:07:51;;;;;;;0.77;0.60;;;;;;;;;;5092938;28;20032;-37
2024/02/27 13:10:19;;;;;;;1.88;0.60;;;;;;;;;;5092965;28;20032;-37
2024/02/27 13:12:47;;;;;;;3.40;0.85;;;;;;;;;;5092639;28;20478;-37
2024/02/27 13:15:14;;;;;;;5.18;0.70;;;;;;;;;;5092928;28;20432;-38
2024/02/27 13:17:41;;;;;;;1.17;0.60;;;;;;;;;;5092807;28;20032;-38
2024/02/27 13:20:08;;;;;;;3.70;0.70;;;;;;;;;;5074506;28;20107;-37
2024/02/27 13:22:36;;;;;;;16.27;2.40;;;;;;;;;;5092392;28;20083;-37
2024/02/27 13:25:03;;;;;;;6.60;1.05;;;;;;;;;;5074387;28;20370;-38
2024/02/27 13:27:30;;;;;;;4.85;0.80;;;;;;;;;;5074357;28;20054;-37
2024/02/27 13:29:57;;;;;;;5.32;0.90;;;;;;;;;;5092557;28;20039;-38
2024/02/27 13:32:23;;;;;;;5.35;0.90;;;;;;;;;;5092088;28;20043;-37
2024/02/27 13:34:50;;;;;;;3.67;0.82;;;;;;;;;;5092574;28;20091;-37
2024/02/27 13:37:17;;;;;;;6.18;0.60;;;;;;;;;;5092436;28;20110;-37
2024/02/27 13:39:44;;;;;;;2.35;0.75;;;;;;;;;;5074090;28;20032;-38
2024/02/27 13:42:12;;;;;;;1.67;0.70;;;;;;;;;;5092096;28;20044;-37
2024/02/27 13:44:39;;;;;;;4.15;0.50;;;;;;;;;;5092147;28;20043;-38
2024/02/27 13:47:07;;;;;;;3.10;0.70;;;;;;;;;;5090951;28;20458;-38
2024/02/27 13:49:34;;;;;;;3.47;0.90;;;;;;;;;;5088781;28;20164;-37
2024/02/27 13:52:01;;;;;;;3.42;0.60;;;;;;;;;;5091296;28;20097;-36
2024/02/27 13:54:28;;;;;;;1.38;0.43;;;;;;;;;;5091526;28;20030;-37
2024/02/27 13:56:55;;;;;;;0.82;0.43;;;;;;;;;;5088422;28;20023;-39
2024/02/27 13:59:22;;;;;;;2.55;0.40;;;;;;;;;;5090911;28;20119;-39
2024/02/27 14:01:50;;;;;;;5.78;0.88;;;;;;;;;;5090619;28;20036;-39
2024/02/27 14:04:17;;;;;;;2.92;0.73;;;;;;;;;;5082271;28;20401;-41
2024/02/27 14:06:44;;;;;;;2.67;0.80;;;;;;;;;;5090549;28;20032;-38
2024/02/27 14:09:11;;;;;;;2.92;0.60;;;;;;;;;;5072298;28;20024;-36
2024/02/27 14:11:39;;;;;;;2.85;0.50;;;;;;;;;;5090616;28;20031;-39
2024/02/27 14:14:06;;;;;;;0.98;0.45;;;;;;;;;;5090674;28;20126;-39
2024/02/27 14:16:33;;;;;;;3.25;0.55;;;;;;;;;;5088414;28;20507;-37
2024/02/27 14:19:00;;;;;;;0.95;0.35;;;;;;;;;;5090361;28;20036;-38
2024/02/27 14:21:27;;;;;;;3.67;0.70;;;;;;;;;;5090774;28;20034;-39
2024/02/27 14:23:54;;;;;;;1.40;0.50;;;;;;;;;;5090414;28;20028;-40
2024/02/27 14:26:21;;;;;;;2.05;0.50;;;;;;;;;;5089015;28;20028;-38
2024/02/27 14:28:48;;;;;;;1.88;0.57;;;;;;;;;;5090265;28;20044;-38
2024/02/27 14:31:15;;;;;;;4.65;0.70;;;;;;;;;;5089934;28;20040;-36
2024/02/27 14:33:42;;;;;;;4.45;0.60;;;;;;;;;;5090470;28;20024;-37
2024/02/27 14:36:11;;;;;;;1.83;0.60;;;;;;;;;;5090323;28;20042;-37
2024/02/27 14:38:38;;;;;;;6.55;0.90;;;;;;;;;;5089606;28;20043;-37
2024/02/27 14:41:05;;;;;;;5.60;0.70;;;;;;;;;;5088603;28;20020;-48
2024/02/27 14:43:32;;;;;;;1.63;0.60;;;;;;;;;;5090004;28;20096;-37
2024/02/27 14:45:59;;;;;;;1.90;0.70;;;;;;;;;;5090440;28;20044;-39
2024/02/27 14:48:26;;;;;;;2.17;0.65;;;;;;;;;;5090320;28;20111;-38
2024/02/27 14:50:53;;;;;;;0.73;0.60;;;;;;;;;;5088207;28;20034;-39
2024/02/27 14:53:20;;;;;;;3.53;0.55;;;;;;;;;;5090170;28;20835;-38
2024/02/27 14:55:47;;;;;;;1.92;0.60;;;;;;;;;;5090104;28;20028;-37